EDXW/GWT METAR and TAF weather

Enter ICAO airport designator
Station Type Date Time Source
EDXW METAR 2022/01/26 16:20 UTC NOAA

EDXW 261620Z 26016KT 9999 FEW025 OVC029 06/05 Q1022


Station Type Date Time Source
EDXW Decoded METAR 2022/01/26 16:20 UTC NOAA

Westerland / Sylt, Germany (EDXW) 54-55N 008-21E 20M
Jan 26, 2022 - 11:20 AM EST / 2022.01.26 1620 UTC
Wind: from the W (260 degrees) at 18 MPH (16 KT):0
Visibility: greater than 7 mile(s):0
Sky conditions: overcast
Temperature: 42 F (6 C)
Dew Point: 41 F (5 C)
Relative Humidity: 93%
Pressure (altimeter): 30.18 in. Hg (1022 hPa)
ob: EDXW 261620Z 26016KT 9999 FEW025 OVC029 06/05 Q1022
cycle: 16

Station Type Date Time Source
EDXW TAF 2009/07/07 14:00 UTC NOAA

TAF EDXW 071400Z 0715/0719 22015G25KT 9999 SCT020

Example: see airport list